NCAR-RAP Real-Time Weather Data

Output produced by METARs form (17 January 2018  22:27 UTC)
found at http://weather.rap.ucar.edu/surface/
 
Conditions at: KGIF observed 17 January 2018  21:53 UTC
Temperature: 14.4°C (58°F)
Dewpoint: 7.2°C (45°F) [RH = 62%]
Pressure (altimeter): 30.24 inches Hg (1024.1 mb)
[Sea-level pressure: 1023.9 mb]
Winds: from the WNW (300 degrees) at 20 MPH (17 knots; 8.8 m/s)
Visibility: 10 or more miles (16+ km)
Ceiling: at least 12,000 feet AGL
Clouds: scattered clouds at 4500 feet AGL
Present Weather: automated observation with no human augmentation;
there may or may not be significant weather present at this time
KGIF 172153Z AUTO 30017KT 10SM SCT045 14/07 A3024 RMK AO2 SLP239 T01440072

Conditions at: KGIF observed 17 January 2018  20:53 UTC
Temperature: 16.1°C (61°F)
Dewpoint: 7.8°C (46°F) [RH = 58%]
Pressure (altimeter): 30.21 inches Hg (1023.1 mb)
[Sea-level pressure: 1023.0 mb]
Winds: from the WNW (300 degrees) at 17 MPH (15 knots; 7.8 m/s)
Visibility: 10 or more miles (16+ km)
Ceiling: at least 12,000 feet AGL
Clouds: sky clear below 12,000 feet AGL
Present Weather: automated observation with no human augmentation;
there may or may not be significant weather present at this time
KGIF 172053Z AUTO 30015KT 10SM CLR 16/08 A3021 RMK AO2 SLP230 T01610078 55007

Conditions at: KGIF observed 17 January 2018  19:53 UTC
Temperature: 21.1°C (70°F)
Dewpoint: 8.3°C (47°F) [RH = 44%]
Pressure (altimeter): 30.19 inches Hg (1022.4 mb)
[Sea-level pressure: 1022.2 mb]
Winds: from the WNW (300 degrees) at 14 MPH (12 knots; 6.2 m/s)
Visibility: 10 or more miles (16+ km)
Ceiling: 6000 feet AGL
Clouds: broken clouds at 6000 feet AGL
Present Weather: automated observation with no human augmentation;
there may or may not be significant weather present at this time
KGIF 171953Z AUTO 30012KT 10SM BKN060 21/08 A3019 RMK AO2 SLP222 T02110083

Conditions at: KGIF observed 17 January 2018  18:53 UTC
Temperature: 21.1°C (70°F)
Dewpoint: 7.8°C (46°F) [RH = 42%]
Pressure (altimeter): 30.20 inches Hg (1022.8 mb)
[Sea-level pressure: 1022.5 mb]
Winds: from the NW (320 degrees) at 10 MPH (9 knots; 4.7 m/s)
Visibility: 10 or more miles (16+ km)
Ceiling: at least 12,000 feet AGL
Clouds: sky clear below 12,000 feet AGL
Present Weather: automated observation with no human augmentation;
there may or may not be significant weather present at this time
KGIF 171853Z AUTO 32009KT 10SM CLR 21/08 A3020 RMK AO2 SLP225 T02110078

Conditions at: KGIF observed 17 January 2018  17:53 UTC
Temperature: 20.6°C (69°F)
Dewpoint: 7.2°C (45°F) [RH = 42%]
Pressure (altimeter): 30.24 inches Hg (1024.1 mb)
[Sea-level pressure: 1023.7 mb]
Winds: from the W (280 degrees) at 12 MPH (10 knots; 5.2 m/s)
Visibility: 10 or more miles (16+ km)
Ceiling: at least 12,000 feet AGL
Clouds: sky clear below 12,000 feet AGL
Present Weather: automated observation with no human augmentation;
there may or may not be significant weather present at this time
KGIF 171753Z AUTO 28010KT 10SM CLR 21/07 A3024 RMK AO2 SLP237 T02060072 10206 20089 58018

Conditions at: KGIF observed 17 January 2018  16:53 UTC
Temperature: 20.0°C (68°F)
Dewpoint: 9.4°C (49°F) [RH = 50%]
Pressure (altimeter): 30.27 inches Hg (1025.1 mb)
[Sea-level pressure: 1024.8 mb]
Winds: from the W (280 degrees) at 8 MPH (7 knots; 3.6 m/s)
Visibility: 10 or more miles (16+ km)
Ceiling: at least 12,000 feet AGL
Clouds: sky clear below 12,000 feet AGL
Present Weather: automated observation with no human augmentation;
there may or may not be significant weather present at this time
KGIF 171653Z AUTO 28007KT 10SM CLR 20/09 A3027 RMK AO2 SLP248 T02000094

Conditions at: KGIF observed 17 January 2018  15:53 UTC
Temperature: 17.2°C (63°F)
Dewpoint: 11.1°C (52°F) [RH = 67%]
Pressure (altimeter): 30.29 inches Hg (1025.8 mb)
[Sea-level pressure: 1025.5 mb]
Winds: variable direction winds at 3 MPH (3 knots; 1.6 m/s)
Visibility: 10 or more miles (16+ km)
Ceiling: at least 12,000 feet AGL
Clouds: sky clear below 12,000 feet AGL
Present Weather: automated observation with no human augmentation;
there may or may not be significant weather present at this time
KGIF 171553Z AUTO VRB03KT 10SM CLR 17/11 A3029 RMK AO2 SLP255 T01720111

Conditions at: KGIF observed 17 January 2018  14:53 UTC
Temperature: 14.4°C (58°F)
Dewpoint: 11.1°C (52°F) [RH = 81%]
Pressure (altimeter): 30.29 inches Hg (1025.8 mb)
[Sea-level pressure: 1025.5 mb]
Winds: calm
Visibility: 10 or more miles (16+ km)
Ceiling: at least 12,000 feet AGL
Clouds: sky clear below 12,000 feet AGL
Present Weather: automated observation with no human augmentation;
there may or may not be significant weather present at this time
KGIF 171453Z AUTO 00000KT 10SM CLR 14/11 A3029 RMK AO2 SLP255 T01440111 51009

Conditions at: KGIF observed 17 January 2018  13:53 UTC
Temperature: 12.2°C (54°F)
Dewpoint: 10.6°C (51°F) [RH = 90%]
Pressure (altimeter): 30.28 inches Hg (1025.5 mb)
[Sea-level pressure: 1025.3 mb]
Winds: from the NNW (340 degrees) at 3 MPH (3 knots; 1.6 m/s)
Visibility: 10 or more miles (16+ km)
Ceiling: at least 12,000 feet AGL
Clouds: sky clear below 12,000 feet AGL
Present Weather: automated observation with no human augmentation;
there may or may not be significant weather present at this time
KGIF 171353Z AUTO 34003KT 10SM CLR 12/11 A3028 RMK AO2 SLP253 T01220106

Conditions at: KGIF observed 17 January 2018  12:53 UTC
Temperature: 8.9°C (48°F)
Dewpoint: 8.9°C (48°F) [RH = 100%]
Pressure (altimeter): 30.27 inches Hg (1025.1 mb)
[Sea-level pressure: 1025.0 mb]
Winds: calm
Visibility: 3 miles (5 km)
Ceiling: at least 12,000 feet AGL
Clouds: sky clear below 12,000 feet AGL
Present Weather: BR  (mist)
KGIF 171253Z AUTO 00000KT 3SM BR CLR 09/09 A3027 RMK AO2 SLP250 T00890089

Conditions at: KGIF observed 17 January 2018  11:53 UTC
Temperature: 8.9°C (48°F)
Dewpoint: 8.9°C (48°F) [RH = 100%]
Pressure (altimeter): 30.26 inches Hg (1024.8 mb)
[Sea-level pressure: 1024.6 mb]
Winds: from the NNE (20 degrees) at 3 MPH (3 knots; 1.6 m/s)
Visibility: 10 or more miles (16+ km)
Ceiling: at least 12,000 feet AGL
Clouds: sky clear below 12,000 feet AGL
Present Weather: automated observation with no human augmentation;
there may or may not be significant weather present at this time
KGIF 171153Z AUTO 02003KT 10SM CLR 09/09 A3026 RMK AO2 SLP246 T00890089 10111 20089 53008

Conditions at: KGIF observed 17 January 2018  10:53 UTC
Temperature: 9.4°C (49°F)
Dewpoint: 9.4°C (49°F) [RH = 100%]
Pressure (altimeter): 30.25 inches Hg (1024.5 mb)
[Sea-level pressure: 1024.2 mb]
Winds: from the NNE (20 degrees) at 3 MPH (3 knots; 1.6 m/s)
Visibility: 9 miles (14 km)
Ceiling: at least 12,000 feet AGL
Clouds: sky clear below 12,000 feet AGL
Present Weather: automated observation with no human augmentation;
there may or may not be significant weather present at this time
KGIF 171053Z AUTO 02003KT 9SM CLR 09/09 A3025 RMK AO2 SLP242 T00940094

Conditions at: KGIF observed 17 January 2018  09:53 UTC
Temperature: 10.0°C (50°F)
Dewpoint: 9.4°C (49°F) [RH = 96%]
Pressure (altimeter): 30.25 inches Hg (1024.5 mb)
[Sea-level pressure: 1024.2 mb]
Winds: from the NNW (340 degrees) at 6 MPH (5 knots; 2.6 m/s)
Visibility: 10 or more miles (16+ km)
Ceiling: at least 12,000 feet AGL
Clouds: sky clear below 12,000 feet AGL
Present Weather: automated observation with no human augmentation;
there may or may not be significant weather present at this time
KGIF 170953Z AUTO 34005KT 10SM CLR 10/09 A3025 RMK AO2 SLP242 T01000094

Conditions at: KGIF observed 17 January 2018  08:53 UTC
Temperature: 10.6°C (51°F)
Dewpoint: 10.0°C (50°F) [RH = 96%]
Pressure (altimeter): 30.24 inches Hg (1024.1 mb)
[Sea-level pressure: 1023.9 mb]
Winds: from the N (360 degrees) at 3 MPH (3 knots; 1.6 m/s)
Visibility: 10 or more miles (16+ km)
Ceiling: at least 12,000 feet AGL
Clouds: sky clear below 12,000 feet AGL
Present Weather: automated observation with no human augmentation;
there may or may not be significant weather present at this time
KGIF 170853Z AUTO 36003KT 10SM CLR 11/10 A3024 RMK AO2 SLP239 T01060100 56011

Conditions at: KGIF observed 17 January 2018  07:53 UTC
Temperature: 10.0°C (50°F)
Dewpoint: 9.4°C (49°F) [RH = 96%]
Pressure (altimeter): 30.25 inches Hg (1024.5 mb)
[Sea-level pressure: 1024.1 mb]
Winds: from the NNE (20 degrees) at 5 MPH (4 knots; 2.1 m/s)
Visibility: 8 miles (13 km)
Ceiling: at least 12,000 feet AGL
Clouds: sky clear below 12,000 feet AGL
Present Weather: automated observation with no human augmentation;
there may or may not be significant weather present at this time
KGIF 170753Z AUTO 02004KT 8SM CLR 10/09 A3025 RMK AO2 SLP241 T01000094

Conditions at: KGIF observed 17 January 2018  06:53 UTC
Temperature: 10.6°C (51°F)
Dewpoint: 10.6°C (51°F) [RH = 100%]
Pressure (altimeter): 30.26 inches Hg (1024.8 mb)
[Sea-level pressure: 1024.7 mb]
Winds: calm
Visibility: 10 or more miles (16+ km)
Ceiling: at least 12,000 feet AGL
Clouds: sky clear below 12,000 feet AGL
Present Weather: automated observation with no human augmentation;
there may or may not be significant weather present at this time
KGIF 170653Z AUTO 00000KT 10SM CLR 11/11 A3026 RMK AO2 SLP247 T01060106

Conditions at: KGIF observed 17 January 2018  05:53 UTC
Temperature: 11.1°C (52°F)
Dewpoint: 10.0°C (50°F) [RH = 93%]
Pressure (altimeter): 30.27 inches Hg (1025.1 mb)
[Sea-level pressure: 1025.0 mb]
Winds: calm
Visibility: 10 or more miles (16+ km)
Ceiling: at least 12,000 feet AGL
Clouds: sky clear below 12,000 feet AGL
Present Weather: automated observation with no human augmentation;
there may or may not be significant weather present at this time
KGIF 170553Z AUTO 00000KT 10SM CLR 11/10 A3027 RMK AO2 SLP250 T01110100 10161 20106 58015

Conditions at: KGIF observed 17 January 2018  04:53 UTC
Temperature: 11.1°C (52°F)
Dewpoint: 10.6°C (51°F) [RH = 97%]
Pressure (altimeter): 30.29 inches Hg (1025.8 mb)
[Sea-level pressure: 1025.7 mb]
Winds: calm
Visibility: 10 or more miles (16+ km)
Ceiling: at least 12,000 feet AGL
Clouds: sky clear below 12,000 feet AGL
Present Weather: automated observation with no human augmentation;
there may or may not be significant weather present at this time
KGIF 170453Z AUTO 00000KT 10SM CLR 11/11 A3029 RMK AO2 SLP257 T01110106 402280078

Conditions at: KGIF observed 17 January 2018  03:53 UTC
Temperature: 11.7°C (53°F)
Dewpoint: 10.0°C (50°F) [RH = 89%]
Pressure (altimeter): 30.30 inches Hg (1026.2 mb)
[Sea-level pressure: 1026.1 mb]
Winds: from the NE (50 degrees) at 3 MPH (3 knots; 1.6 m/s)
Visibility: 10 or more miles (16+ km)
Ceiling: at least 12,000 feet AGL
Clouds: sky clear below 12,000 feet AGL
Present Weather: automated observation with no human augmentation;
there may or may not be significant weather present at this time
KGIF 170353Z AUTO 05003KT 10SM CLR 12/10 A3030 RMK AO2 SLP261 T01170100

Conditions at: KGIF observed 17 January 2018  02:53 UTC
Temperature: 13.3°C (56°F)
Dewpoint: 10.6°C (51°F) [RH = 84%]
Pressure (altimeter): 30.32 inches Hg (1026.8 mb)
[Sea-level pressure: 1026.5 mb]
Winds: from the ENE (70 degrees) at 6 MPH (5 knots; 2.6 m/s)
Visibility: 10 or more miles (16+ km)
Ceiling: at least 12,000 feet AGL
Clouds: sky clear below 12,000 feet AGL
Present Weather: automated observation with no human augmentation;
there may or may not be significant weather present at this time
KGIF 170253Z AUTO 07005KT 10SM CLR 13/11 A3032 RMK AO2 SLP265 T01330106 51010

Conditions at: KGIF observed 17 January 2018  01:53 UTC
Temperature: 14.4°C (58°F)
Dewpoint: 10.0°C (50°F) [RH = 75%]
Pressure (altimeter): 30.31 inches Hg (1026.5 mb)
[Sea-level pressure: 1026.4 mb]
Winds: from the NE (50 degrees) at 5 MPH (4 knots; 2.1 m/s)
Visibility: 10 or more miles (16+ km)
Ceiling: at least 12,000 feet AGL
Clouds: sky clear below 12,000 feet AGL
Present Weather: automated observation with no human augmentation;
there may or may not be significant weather present at this time
KGIF 170153Z AUTO 05004KT 10SM CLR 14/10 A3031 RMK AO2 SLP264 T01440100

Conditions at: KGIF observed 17 January 2018  00:53 UTC
Temperature: 14.4°C (58°F)
Dewpoint: 8.3°C (47°F) [RH = 67%]
Pressure (altimeter): 30.30 inches Hg (1026.2 mb)
[Sea-level pressure: 1025.9 mb]
Winds: from the NE (50 degrees) at 6 MPH (5 knots; 2.6 m/s)
Visibility: 10 or more miles (16+ km)
Ceiling: at least 12,000 feet AGL
Clouds: sky clear below 12,000 feet AGL
Present Weather: automated observation with no human augmentation;
there may or may not be significant weather present at this time
KGIF 170053Z AUTO 05005KT 10SM CLR 14/08 A3030 RMK AO2 SLP259 T01440083

Conditions at: KGIF observed 16 January 2018  23:53 UTC
Temperature: 16.1°C (61°F)
Dewpoint: 7.2°C (45°F) [RH = 56%]
Pressure (altimeter): 30.29 inches Hg (1025.8 mb)
[Sea-level pressure: 1025.4 mb]
Winds: from the N (10 degrees) at 5 MPH (4 knots; 2.1 m/s)
Visibility: 10 or more miles (16+ km)
Ceiling: at least 12,000 feet AGL
Clouds: sky clear below 12,000 feet AGL
Present Weather: automated observation with no human augmentation;
there may or may not be significant weather present at this time
KGIF 162353Z AUTO 01004KT 10SM CLR 16/07 A3029 RMK AO2 SLP254 T01610072 10228 20161 51002

Conditions at: KGIF observed 16 January 2018  22:53 UTC
Temperature: 17.8°C (64°F)
Dewpoint: 7.2°C (45°F) [RH = 50%]
Pressure (altimeter): 30.28 inches Hg (1025.5 mb)
[Sea-level pressure: 1025.3 mb]
Winds: from the N (10 degrees) at 6 MPH (5 knots; 2.6 m/s)
Visibility: 10 or more miles (16+ km)
Ceiling: at least 12,000 feet AGL
Clouds: sky clear below 12,000 feet AGL
Present Weather: automated observation with no human augmentation;
there may or may not be significant weather present at this time
KGIF 162253Z AUTO 01005KT 10SM CLR 18/07 A3028 RMK AO2 SLP253 T01780072

Conditions at: KGIF observed 16 January 2018  21:53 UTC
Temperature: 20.6°C (69°F)
Dewpoint: 7.2°C (45°F) [RH = 42%]
Pressure (altimeter): 30.29 inches Hg (1025.8 mb)
[Sea-level pressure: 1025.5 mb]
Winds: from the NNE (20 degrees) at 6 MPH (5 knots; 2.6 m/s)
Visibility: 10 or more miles (16+ km)
Ceiling: at least 12,000 feet AGL
Clouds: sky clear below 12,000 feet AGL
Present Weather: automated observation with no human augmentation;
there may or may not be significant weather present at this time
KGIF 162153Z AUTO 02005KT 10SM CLR 21/07 A3029 RMK AO2 SLP255 T02060072

Conditions at: KGIF observed 16 January 2018  20:53 UTC
Temperature: 21.7°C (71°F)
Dewpoint: 7.2°C (45°F) [RH = 39%]
Pressure (altimeter): 30.28 inches Hg (1025.5 mb)
[Sea-level pressure: 1025.2 mb]
Winds: from the N (360 degrees) at 9 MPH (8 knots; 4.2 m/s)
Visibility: 10 or more miles (16+ km)
Ceiling: at least 12,000 feet AGL
Clouds: sky clear below 12,000 feet AGL
Present Weather: automated observation with no human augmentation;
there may or may not be significant weather present at this time
KGIF 162053Z AUTO 36008KT 10SM CLR 22/07 A3028 RMK AO2 SLP252 T02170072 56021

Conditions at: KGIF observed 16 January 2018  19:53 UTC
Temperature: 22.2°C (72°F)
Dewpoint: 7.8°C (46°F) [RH = 40%]
Pressure (altimeter): 30.29 inches Hg (1025.8 mb)
[Sea-level pressure: 1025.6 mb]
Winds: from the NE (40 degrees) at 10 MPH (9 knots; 4.7 m/s)
Visibility: 10 or more miles (16+ km)
Ceiling: 6000 feet AGL
Clouds: broken clouds at 6000 feet AGL
Present Weather: automated observation with no human augmentation;
there may or may not be significant weather present at this time
KGIF 161953Z AUTO 04009KT 10SM BKN060 22/08 A3029 RMK AO2 SLP256 T02220078

Conditions at: KGIF observed 16 January 2018  18:53 UTC
Temperature: 21.7°C (71°F)
Dewpoint: 7.8°C (46°F) [RH = 41%]
Pressure (altimeter): 30.31 inches Hg (1026.5 mb)
[Sea-level pressure: 1026.1 mb]
Winds: from the ENE (70 degrees) at 5 MPH (4 knots; 2.1 m/s)
Visibility: 10 or more miles (16+ km)
Ceiling: at least 12,000 feet AGL
Clouds: few clouds at 5500 feet AGL
Present Weather: automated observation with no human augmentation;
there may or may not be significant weather present at this time
KGIF 161853Z AUTO 07004KT 10SM FEW055 22/08 A3031 RMK AO2 SLP261 T02170078

Conditions at: KGIF observed 16 January 2018  18:36 UTC
Temperature: 21.1°C (70°F)
Dewpoint: 7.8°C (46°F) [RH = 42%]
Pressure (altimeter): 30.31 inches Hg (1026.5 mb)
Winds: from the E (80 degrees) at 8 MPH (7 knots; 3.6 m/s)
Visibility: 4 miles (6 km)
Ceiling: at least 12,000 feet AGL
Clouds: few clouds at 200 feet AGL
Present Weather: HZ  (haze)
KGIF 161836Z AUTO 08007KT 4SM HZ FEW002 21/08 A3031 RMK AO2 T02110078

Conditions at: KGIF observed 16 January 2018  17:53 UTC
Temperature: 21.1°C (70°F)
Dewpoint: 8.3°C (47°F) [RH = 44%]
Pressure (altimeter): 30.34 inches Hg (1027.5 mb)
[Sea-level pressure: 1027.4 mb]
Winds: from the NE (50 degrees) at 8 MPH (7 knots; 3.6 m/s)
Visibility: 10 or more miles (16+ km)
Ceiling: at least 12,000 feet AGL
Clouds: sky clear below 12,000 feet AGL
Present Weather: automated observation with no human augmentation;
there may or may not be significant weather present at this time
KGIF 161753Z AUTO 05007KT 10SM CLR 21/08 A3034 RMK AO2 SLP274 T02110083 10211 20089 58020

Conditions at: KGIF observed 16 January 2018  16:53 UTC
Temperature: 20.6°C (69°F)
Dewpoint: 10.0°C (50°F) [RH = 51%]
Pressure (altimeter): 30.37 inches Hg (1028.5 mb)
[Sea-level pressure: 1028.1 mb]
Winds: from the ENE (60 degrees) at 10 MPH (9 knots; 4.7 m/s)
Visibility: 10 or more miles (16+ km)
Ceiling: at least 12,000 feet AGL
Clouds: sky clear below 12,000 feet AGL
Present Weather: automated observation with no human augmentation;
there may or may not be significant weather present at this time
KGIF 161653Z AUTO 06009KT 10SM CLR 21/10 A3037 RMK AO2 SLP281 T02060100

Conditions at: KGIF observed 16 January 2018  15:53 UTC
Temperature: 18.3°C (65°F)
Dewpoint: 10.0°C (50°F) [RH = 58%]
Pressure (altimeter): 30.39 inches Hg (1029.2 mb)
[Sea-level pressure: 1029.1 mb]
Winds: from the E (80 degrees) at 8 MPH (7 knots; 3.6 m/s)
Visibility: 10 or more miles (16+ km)
Ceiling: at least 12,000 feet AGL
Clouds: sky clear below 12,000 feet AGL
Present Weather: automated observation with no human augmentation;
there may or may not be significant weather present at this time
KGIF 161553Z AUTO 08007KT 10SM CLR 18/10 A3039 RMK AO2 SLP291 T01830100

Conditions at: KGIF observed 16 January 2018  14:53 UTC
Temperature: 16.1°C (61°F)
Dewpoint: 10.0°C (50°F) [RH = 67%]
Pressure (altimeter): 30.40 inches Hg (1029.5 mb)
[Sea-level pressure: 1029.3 mb]
Winds: from the NE (40 degrees) at 7 MPH (6 knots; 3.1 m/s)
Visibility: 10 or more miles (16+ km)
Ceiling: at least 12,000 feet AGL
Clouds: sky clear below 12,000 feet AGL
Present Weather: automated observation with no human augmentation;
there may or may not be significant weather present at this time
KGIF 161453Z AUTO 04006KT 10SM CLR 16/10 A3040 RMK AO2 SLP293 T01610100 53013

Conditions at: KGIF observed 16 January 2018  13:53 UTC
Temperature: 12.2°C (54°F)
Dewpoint: 9.4°C (49°F) [RH = 83%]
Pressure (altimeter): 30.38 inches Hg (1028.9 mb)
[Sea-level pressure: 1028.7 mb]
Winds: from the NNE (20 degrees) at 6 MPH (5 knots; 2.6 m/s)
Visibility: 10 or more miles (16+ km)
Ceiling: at least 12,000 feet AGL
Clouds: sky clear below 12,000 feet AGL
Present Weather: automated observation with no human augmentation;
there may or may not be significant weather present at this time
KGIF 161353Z AUTO 02005KT 10SM CLR 12/09 A3038 RMK AO2 SLP287 T01220094

Conditions at: KGIF observed 16 January 2018  12:53 UTC
Temperature: 9.4°C (49°F)
Dewpoint: 8.3°C (47°F) [RH = 93%]
Pressure (altimeter): 30.37 inches Hg (1028.5 mb)
[Sea-level pressure: 1028.3 mb]
Winds: from the N (360 degrees) at 7 MPH (6 knots; 3.1 m/s)
Visibility: 10 or more miles (16+ km)
Ceiling: at least 12,000 feet AGL
Clouds: few clouds at 7000 feet AGL
Present Weather: automated observation with no human augmentation;
there may or may not be significant weather present at this time
KGIF 161253Z AUTO 36006KT 10SM FEW070 09/08 A3037 RMK AO2 SLP283 T00940083

Conditions at: KGIF observed 16 January 2018  11:53 UTC
Temperature: 8.9°C (48°F)
Dewpoint: 7.8°C (46°F) [RH = 93%]
Pressure (altimeter): 30.36 inches Hg (1028.2 mb)
[Sea-level pressure: 1028.1 mb]
Winds: from the N (360 degrees) at 5 MPH (4 knots; 2.1 m/s)
Visibility: 10 or more miles (16+ km)
Ceiling: 7000 feet AGL
Clouds: overcast cloud deck at 7000 feet AGL
Present Weather: automated observation with no human augmentation;
there may or may not be significant weather present at this time
KGIF 161153Z AUTO 36004KT 10SM OVC070 09/08 A3036 RMK AO2 SLP281 T00890078 10089 20083 53007

Conditions at: KGIF observed 16 January 2018  10:53 UTC
Temperature: 8.9°C (48°F)
Dewpoint: 7.8°C (46°F) [RH = 93%]
Pressure (altimeter): 30.35 inches Hg (1027.9 mb)
[Sea-level pressure: 1027.6 mb]
Winds: from the N (10 degrees) at 6 MPH (5 knots; 2.6 m/s)
Visibility: 10 or more miles (16+ km)
Ceiling: 7000 feet AGL
Clouds: broken clouds at 7000 feet AGL
Present Weather: automated observation with no human augmentation;
there may or may not be significant weather present at this time
KGIF 161053Z AUTO 01005KT 10SM BKN070 09/08 A3035 RMK AO2 SLP276 T00890078

Conditions at: KGIF observed 16 January 2018  09:53 UTC
Temperature: 8.3°C (47°F)
Dewpoint: 7.2°C (45°F) [RH = 93%]
Pressure (altimeter): 30.34 inches Hg (1027.5 mb)
[Sea-level pressure: 1027.2 mb]
Winds: from the NNE (20 degrees) at 6 MPH (5 knots; 2.6 m/s)
Visibility: 10 or more miles (16+ km)
Ceiling: at least 12,000 feet AGL
Clouds: few clouds at 6500 feet AGL
Present Weather: automated observation with no human augmentation;
there may or may not be significant weather present at this time
KGIF 160953Z AUTO 02005KT 10SM FEW065 08/07 A3034 RMK AO2 SLP272 T00830072

Conditions at: KGIF observed 16 January 2018  08:53 UTC
Temperature: 8.9°C (48°F)
Dewpoint: 7.2°C (45°F) [RH = 89%]
Pressure (altimeter): 30.34 inches Hg (1027.5 mb)
[Sea-level pressure: 1027.3 mb]
Winds: from the NNE (20 degrees) at 6 MPH (5 knots; 2.6 m/s)
Visibility: 10 or more miles (16+ km)
Ceiling: 7000 feet AGL
Clouds: broken clouds at 7000 feet AGL
Present Weather: automated observation with no human augmentation;
there may or may not be significant weather present at this time
KGIF 160853Z AUTO 02005KT 10SM BKN070 09/07 A3034 RMK AO2 SLP273 T00890072 55006

Conditions at: KGIF observed 16 January 2018  07:53 UTC
Temperature: 8.3°C (47°F)
Dewpoint: 6.7°C (44°F) [RH = 90%]
Pressure (altimeter): 30.34 inches Hg (1027.5 mb)
[Sea-level pressure: 1027.2 mb]
Winds: from the NNE (30 degrees) at 7 MPH (6 knots; 3.1 m/s)
Visibility: 10 or more miles (16+ km)
Ceiling: 6500 feet AGL
Clouds: broken clouds at 6500 feet AGL
Present Weather: automated observation with no human augmentation;
there may or may not be significant weather present at this time
KGIF 160753Z AUTO 03006KT 10SM BKN065 08/07 A3034 RMK AO2 SLP272 T00830067

Conditions at: KGIF observed 16 January 2018  06:53 UTC
Temperature: 8.3°C (47°F)
Dewpoint: 6.1°C (43°F) [RH = 86%]
Pressure (altimeter): 30.35 inches Hg (1027.9 mb)
[Sea-level pressure: 1027.5 mb]
Winds: from the NNE (30 degrees) at 9 MPH (8 knots; 4.2 m/s)
Visibility: 10 or more miles (16+ km)
Ceiling: 6500 feet AGL
Clouds: broken clouds at 6500 feet AGL
Present Weather: automated observation with no human augmentation;
there may or may not be significant weather present at this time
KGIF 160653Z AUTO 03008KT 10SM BKN065 08/06 A3035 RMK AO2 SLP275 T00830061

Conditions at: KGIF observed 16 January 2018  05:53 UTC
Temperature: 8.3°C (47°F)
Dewpoint: 5.6°C (42°F) [RH = 83%]
Pressure (altimeter): 30.36 inches Hg (1028.2 mb)
[Sea-level pressure: 1028.0 mb]
Winds: from the NNE (20 degrees) at 9 MPH (8 knots; 4.2 m/s)
Visibility: 10 or more miles (16+ km)
Ceiling: 6000 feet AGL
Clouds: broken clouds at 6000 feet AGL
Present Weather: automated observation with no human augmentation;
there may or may not be significant weather present at this time
KGIF 160553Z AUTO 02008KT 10SM BKN060 08/06 A3036 RMK AO2 SLP280 T00830056 10133 20078 58008

Conditions at: KGIF observed 16 January 2018  04:53 UTC
Temperature: 8.3°C (47°F)
Dewpoint: 5.6°C (42°F) [RH = 83%]
Pressure (altimeter): 30.37 inches Hg (1028.5 mb)
[Sea-level pressure: 1028.4 mb]
Winds: from the NNE (20 degrees) at 8 MPH (7 knots; 3.6 m/s)
Visibility: 10 or more miles (16+ km)
Ceiling: at least 12,000 feet AGL
Clouds: few clouds at 6000 feet AGL
Present Weather: automated observation with no human augmentation;
there may or may not be significant weather present at this time
KGIF 160453Z AUTO 02007KT 10SM FEW060 08/06 A3037 RMK AO2 SLP284 T00830056 402000067

Conditions at: KGIF observed 16 January 2018  03:53 UTC
Temperature: 8.9°C (48°F)
Dewpoint: 5.6°C (42°F) [RH = 80%]
Pressure (altimeter): 30.38 inches Hg (1028.9 mb)
[Sea-level pressure: 1028.6 mb]
Winds: from the NNE (20 degrees) at 9 MPH (8 knots; 4.2 m/s)
Visibility: 10 or more miles (16+ km)
Ceiling: at least 12,000 feet AGL
Clouds: sky clear below 12,000 feet AGL
Present Weather: automated observation with no human augmentation;
there may or may not be significant weather present at this time
KGIF 160353Z AUTO 02008KT 10SM CLR 09/06 A3038 RMK AO2 SLP286 T00890056

Conditions at: KGIF observed 16 January 2018  02:53 UTC
Temperature: 10.0°C (50°F)
Dewpoint: 6.1°C (43°F) [RH = 77%]
Pressure (altimeter): 30.38 inches Hg (1028.9 mb)
[Sea-level pressure: 1028.7 mb]
Winds: from the NE (50 degrees) at 9 MPH (8 knots; 4.2 m/s)
Visibility: 10 or more miles (16+ km)
Ceiling: at least 12,000 feet AGL
Clouds: sky clear below 12,000 feet AGL
Present Weather: automated observation with no human augmentation;
there may or may not be significant weather present at this time
KGIF 160253Z AUTO 05008KT 10SM CLR 10/06 A3038 RMK AO2 SLP287 T01000061 51010

Conditions at: KGIF observed 16 January 2018  01:53 UTC
Temperature: 11.1°C (52°F)
Dewpoint: 5.6°C (42°F) [RH = 69%]
Pressure (altimeter): 30.38 inches Hg (1028.9 mb)
[Sea-level pressure: 1028.5 mb]
Winds: from the NNE (30 degrees) at 10 MPH (9 knots; 4.7 m/s)
Visibility: 10 or more miles (16+ km)
Ceiling: at least 12,000 feet AGL
Clouds: few clouds at 7000 feet AGL
Present Weather: automated observation with no human augmentation;
there may or may not be significant weather present at this time
KGIF 160153Z AUTO 03009KT 10SM FEW070 11/06 A3038 RMK AO2 SLP285 T01110056

Conditions at: KGIF observed 16 January 2018  00:53 UTC
Temperature: 12.2°C (54°F)
Dewpoint: 3.9°C (39°F) [RH = 57%]
Pressure (altimeter): 30.37 inches Hg (1028.5 mb)
[Sea-level pressure: 1028.2 mb]
Winds: from the NE (50 degrees) at 10 MPH (9 knots; 4.7 m/s)
Visibility: 10 or more miles (16+ km)
Ceiling: 6000 feet AGL
Clouds: broken clouds at 6000 feet AGL
Present Weather: automated observation with no human augmentation;
there may or may not be significant weather present at this time
KGIF 160053Z AUTO 05009KT 10SM BKN060 12/04 A3037 RMK AO2 SLP282 T01220039

Conditions at: KGIF observed 15 January 2018  23:53 UTC
Temperature: 13.3°C (56°F)
Dewpoint: 5.6°C (42°F) [RH = 60%]
Pressure (altimeter): 30.35 inches Hg (1027.9 mb)
[Sea-level pressure: 1027.7 mb]
Winds: from the NE (50 degrees) at 15 MPH (13 knots; 6.8 m/s)
Visibility: 10 or more miles (16+ km)
Ceiling: at least 12,000 feet AGL
Clouds: few clouds at 5500 feet AGL
Present Weather: automated observation with no human augmentation;
there may or may not be significant weather present at this time
KGIF 152353Z AUTO 05013KT 10SM FEW055 13/06 A3035 RMK AO2 SLP277 T01330056 10200 20133 53019

Conditions at: KGIF observed 15 January 2018  22:53 UTC
Temperature: 15.0°C (59°F)
Dewpoint: 6.1°C (43°F) [RH = 55%]
Pressure (altimeter): 30.33 inches Hg (1027.2 mb)
[Sea-level pressure: 1026.9 mb]
Winds: from the NE (50 degrees) at 13 MPH (11 knots; 5.7 m/s)
Visibility: 10 or more miles (16+ km)
Ceiling: at least 12,000 feet AGL
Clouds: sky clear below 12,000 feet AGL
Present Weather: automated observation with no human augmentation;
there may or may not be significant weather present at this time
KGIF 152253Z AUTO 05011KT 10SM CLR 15/06 A3033 RMK AO2 SLP269 T01500061